sensor_id;sensor_type;location;lat;lon;timestamp;P1;durP1;ratioP1;P2;durP2;ratioP2
64609;SDS011;51019;46.090;6.350;2023-05-23T00:00:02;14.23;;;5.57;;
64609;SDS011;51019;46.090;6.350;2023-05-23T00:02:31;13.52;;;5.28;;
64609;SDS011;51019;46.090;6.350;2023-05-23T00:05:01;14.55;;;5.93;;
64609;SDS011;51019;46.090;6.350;2023-05-23T00:07:28;14.88;;;5.68;;
64609;SDS011;51019;46.090;6.350;2023-05-23T00:09:56;15.60;;;5.75;;
64609;SDS011;51019;46.090;6.350;2023-05-23T00:12:24;16.45;;;6.03;;
64609;SDS011;51019;46.090;6.350;2023-05-23T00:14:51;17.08;;;5.82;;
64609;SDS011;51019;46.090;6.350;2023-05-23T00:17:19;13.93;;;5.75;;
64609;SDS011;51019;46.090;6.350;2023-05-23T00:19:49;17.13;;;6.13;;
64609;SDS011;51019;46.090;6.350;2023-05-23T00:22:18;12.18;;;5.20;;
64609;SDS011;51019;46.090;6.350;2023-05-23T00:24:46;15.40;;;5.80;;
64609;SDS011;51019;46.090;6.350;2023-05-23T00:27:15;15.13;;;5.63;;
64609;SDS011;51019;46.090;6.350;2023-05-23T00:29:42;13.98;;;6.22;;
64609;SDS011;51019;46.090;6.350;2023-05-23T00:32:09;13.05;;;5.00;;
64609;SDS011;51019;46.090;6.350;2023-05-23T00:34:37;14.05;;;5.82;;
64609;SDS011;51019;46.090;6.350;2023-05-23T00:37:04;14.82;;;5.75;;
64609;SDS011;51019;46.090;6.350;2023-05-23T00:39:34;14.93;;;5.53;;
64609;SDS011;51019;46.090;6.350;2023-05-23T00:42:02;13.77;;;5.40;;
64609;SDS011;51019;46.090;6.350;2023-05-23T00:44:30;15.32;;;5.80;;
64609;SDS011;51019;46.090;6.350;2023-05-23T00:46:59;14.60;;;5.82;;
64609;SDS011;51019;46.090;6.350;2023-05-23T00:49:27;13.82;;;5.30;;
64609;SDS011;51019;46.090;6.350;2023-05-23T00:51:56;12.90;;;5.65;;
64609;SDS011;51019;46.090;6.350;2023-05-23T00:54:25;16.05;;;6.15;;
64609;SDS011;51019;46.090;6.350;2023-05-23T00:56:59;14.57;;;5.70;;
64609;SDS011;51019;46.090;6.350;2023-05-23T00:59:26;17.80;;;5.63;;
64609;SDS011;51019;46.090;6.350;2023-05-23T01:01:54;13.98;;;5.70;;
64609;SDS011;51019;46.090;6.350;2023-05-23T01:04:24;15.30;;;5.47;;
64609;SDS011;51019;46.090;6.350;2023-05-23T01:06:52;14.60;;;5.90;;
64609;SDS011;51019;46.090;6.350;2023-05-23T01:09:20;15.88;;;5.63;;
64609;SDS011;51019;46.090;6.350;2023-05-23T01:11:51;14.23;;;5.45;;
64609;SDS011;51019;46.090;6.350;2023-05-23T01:14:34;14.98;;;5.13;;
64609;SDS011;51019;46.090;6.350;2023-05-23T01:17:10;13.88;;;6.30;;
64609;SDS011;51019;46.090;6.350;2023-05-23T01:19:57;13.68;;;5.80;;
64609;SDS011;51019;46.090;6.350;2023-05-23T01:22:35;17.52;;;6.43;;
64609;SDS011;51019;46.090;6.350;2023-05-23T01:25:18;15.00;;;5.47;;
64609;SDS011;51019;46.090;6.350;2023-05-23T01:27:56;15.70;;;5.90;;
64609;SDS011;51019;46.090;6.350;2023-05-23T01:30:29;14.48;;;6.07;;
64609;SDS011;51019;46.090;6.350;2023-05-23T01:33:00;18.05;;;5.45;;
64609;SDS011;51019;46.090;6.350;2023-05-23T01:35:30;15.48;;;5.88;;
64609;SDS011;51019;46.090;6.350;2023-05-23T01:37:59;16.08;;;5.10;;
64609;SDS011;51019;46.090;6.350;2023-05-23T01:40:27;15.38;;;5.65;;
64609;SDS011;51019;46.090;6.350;2023-05-23T01:42:56;16.63;;;6.28;;
64609;SDS011;51019;46.090;6.350;2023-05-23T01:45:24;13.88;;;5.45;;
64609;SDS011;51019;46.090;6.350;2023-05-23T01:47:53;15.32;;;5.95;;
64609;SDS011;51019;46.090;6.350;2023-05-23T01:50:22;16.42;;;6.32;;
64609;SDS011;51019;46.090;6.350;2023-05-23T01:52:50;13.70;;;5.78;;
64609;SDS011;51019;46.090;6.350;2023-05-23T01:55:18;14.30;;;5.85;;
64609;SDS011;51019;46.090;6.350;2023-05-23T01:57:48;16.08;;;5.35;;
64609;SDS011;51019;46.090;6.350;2023-05-23T02:00:19;14.85;;;5.70;;
64609;SDS011;51019;46.090;6.350;2023-05-23T02:02:47;16.88;;;6.13;;
64609;SDS011;51019;46.090;6.350;2023-05-23T02:05:15;13.05;;;5.35;;
64609;SDS011;51019;46.090;6.350;2023-05-23T02:07:42;14.75;;;5.80;;
64609;SDS011;51019;46.090;6.350;2023-05-23T02:10:09;14.52;;;6.18;;
64609;SDS011;51019;46.090;6.350;2023-05-23T02:12:37;15.30;;;6.30;;
64609;SDS011;51019;46.090;6.350;2023-05-23T02:15:05;13.85;;;5.88;;
64609;SDS011;51019;46.090;6.350;2023-05-23T02:17:35;16.17;;;6.80;;
64609;SDS011;51019;46.090;6.350;2023-05-23T02:20:03;16.15;;;6.75;;
64609;SDS011;51019;46.090;6.350;2023-05-23T02:22:31;17.05;;;6.25;;
64609;SDS011;51019;46.090;6.350;2023-05-23T02:24:59;13.98;;;6.05;;
64609;SDS011;51019;46.090;6.350;2023-05-23T02:27:26;15.02;;;6.40;;
64609;SDS011;51019;46.090;6.350;2023-05-23T02:29:54;17.63;;;6.30;;
64609;SDS011;51019;46.090;6.350;2023-05-23T02:32:21;15.48;;;5.88;;
64609;SDS011;51019;46.090;6.350;2023-05-23T02:34:51;17.80;;;6.07;;
64609;SDS011;51019;46.090;6.350;2023-05-23T02:37:18;15.23;;;6.20;;
64609;SDS011;51019;46.090;6.350;2023-05-23T02:39:47;18.90;;;6.32;;
64609;SDS011;51019;46.090;6.350;2023-05-23T02:42:14;14.07;;;5.65;;
64609;SDS011;51019;46.090;6.350;2023-05-23T02:44:42;17.73;;;6.05;;
64609;SDS011;51019;46.090;6.350;2023-05-23T02:47:09;14.65;;;6.55;;
64609;SDS011;51019;46.090;6.350;2023-05-23T02:49:36;17.02;;;6.28;;
64609;SDS011;51019;46.090;6.350;2023-05-23T02:52:08;14.57;;;6.35;;
64609;SDS011;51019;46.090;6.350;2023-05-23T02:54:35;15.57;;;6.75;;
64609;SDS011;51019;46.090;6.350;2023-05-23T02:57:03;16.08;;;6.55;;
64609;SDS011;51019;46.090;6.350;2023-05-23T02:59:30;15.00;;;5.82;;
64609;SDS011;51019;46.090;6.350;2023-05-23T03:01:58;16.45;;;5.93;;
64609;SDS011;51019;46.090;6.350;2023-05-23T03:04:26;14.73;;;5.80;;
64609;SDS011;51019;46.090;6.350;2023-05-23T03:06:53;15.75;;;6.05;;
64609;SDS011;51019;46.090;6.350;2023-05-23T03:09:25;15.30;;;6.57;;
64609;SDS011;51019;46.090;6.350;2023-05-23T03:11:53;13.82;;;5.82;;
64609;SDS011;51019;46.090;6.350;2023-05-23T03:14:20;15.70;;;6.35;;
64609;SDS011;51019;46.090;6.350;2023-05-23T03:16:48;15.85;;;6.38;;
64609;SDS011;51019;46.090;6.350;2023-05-23T03:19:15;15.38;;;6.70;;
64609;SDS011;51019;46.090;6.350;2023-05-23T03:21:42;15.85;;;6.40;;
64609;SDS011;51019;46.090;6.350;2023-05-23T03:24:10;13.45;;;5.78;;
64609;SDS011;51019;46.090;6.350;2023-05-23T03:26:39;14.23;;;6.72;;
64609;SDS011;51019;46.090;6.350;2023-05-23T03:29:07;17.55;;;6.45;;
64609;SDS011;51019;46.090;6.350;2023-05-23T03:31:36;16.30;;;6.47;;
64609;SDS011;51019;46.090;6.350;2023-05-23T03:34:03;18.05;;;6.07;;
64609;SDS011;51019;46.090;6.350;2023-05-23T03:36:30;18.73;;;6.70;;
64609;SDS011;51019;46.090;6.350;2023-05-23T03:38:59;14.27;;;6.35;;
64609;SDS011;51019;46.090;6.350;2023-05-23T03:41:27;17.48;;;6.40;;
64609;SDS011;51019;46.090;6.350;2023-05-23T03:43:58;15.23;;;6.65;;
64609;SDS011;51019;46.090;6.350;2023-05-23T03:46:26;14.60;;;6.35;;
64609;SDS011;51019;46.090;6.350;2023-05-23T03:48:53;15.35;;;6.18;;
64609;SDS011;51019;46.090;6.350;2023-05-23T03:51:21;17.52;;;7.03;;
64609;SDS011;51019;46.090;6.350;2023-05-23T03:53:49;14.18;;;6.20;;
64609;SDS011;51019;46.090;6.350;2023-05-23T03:56:16;13.60;;;6.15;;
64609;SDS011;51019;46.090;6.350;2023-05-23T03:58:44;15.07;;;6.60;;
64609;SDS011;51019;46.090;6.350;2023-05-23T04:01:13;15.68;;;6.47;;
64609;SDS011;51019;46.090;6.350;2023-05-23T04:03:40;15.48;;;6.22;;
64609;SDS011;51019;46.090;6.350;2023-05-23T04:06:08;19.17;;;6.82;;
64609;SDS011;51019;46.090;6.350;2023-05-23T04:08:35;17.55;;;6.45;;
64609;SDS011;51019;46.090;6.350;2023-05-23T04:11:06;15.75;;;6.53;;
64609;SDS011;51019;46.090;6.350;2023-05-23T04:13:33;16.88;;;6.32;;
64609;SDS011;51019;46.090;6.350;2023-05-23T04:16:01;16.15;;;6.57;;
64609;SDS011;51019;46.090;6.350;2023-05-23T04:18:34;16.67;;;7.80;;
64609;SDS011;51019;46.090;6.350;2023-05-23T04:21:05;18.55;;;6.45;;
64609;SDS011;51019;46.090;6.350;2023-05-23T04:23:40;15.18;;;6.88;;
64609;SDS011;51019;46.090;6.350;2023-05-23T04:26:08;15.93;;;6.50;;
64609;SDS011;51019;46.090;6.350;2023-05-23T04:28:35;18.60;;;6.60;;
64609;SDS011;51019;46.090;6.350;2023-05-23T04:31:04;15.05;;;6.30;;
64609;SDS011;51019;46.090;6.350;2023-05-23T04:33:35;14.73;;;6.65;;
64609;SDS011;51019;46.090;6.350;2023-05-23T04:36:02;19.65;;;6.65;;
64609;SDS011;51019;46.090;6.350;2023-05-23T04:38:33;15.32;;;6.05;;
64609;SDS011;51019;46.090;6.350;2023-05-23T04:41:02;15.55;;;6.55;;
64609;SDS011;51019;46.090;6.350;2023-05-23T04:43:30;16.38;;;6.85;;
64609;SDS011;51019;46.090;6.350;2023-05-23T04:46:01;15.23;;;5.95;;
64609;SDS011;51019;46.090;6.350;2023-05-23T04:48:31;16.38;;;6.55;;
64609;SDS011;51019;46.090;6.350;2023-05-23T04:51:03;20.23;;;6.68;;
64609;SDS011;51019;46.090;6.350;2023-05-23T04:53:35;17.25;;;7.03;;
64609;SDS011;51019;46.090;6.350;2023-05-23T04:56:05;15.73;;;6.40;;
64609;SDS011;51019;46.090;6.350;2023-05-23T04:58:34;18.38;;;7.00;;
64609;SDS011;51019;46.090;6.350;2023-05-23T05:01:04;15.98;;;7.45;;
64609;SDS011;51019;46.090;6.350;2023-05-23T05:03:34;17.58;;;7.15;;
64609;SDS011;51019;46.090;6.350;2023-05-23T05:06:06;18.75;;;6.57;;
64609;SDS011;51019;46.090;6.350;2023-05-23T05:08:37;19.60;;;6.95;;
64609;SDS011;51019;46.090;6.350;2023-05-23T05:11:05;15.65;;;6.70;;
64609;SDS011;51019;46.090;6.350;2023-05-23T05:13:35;14.68;;;6.65;;
64609;SDS011;51019;46.090;6.350;2023-05-23T05:16:04;17.00;;;6.93;;
64609;SDS011;51019;46.090;6.350;2023-05-23T05:18:32;14.40;;;6.20;;
64609;SDS011;51019;46.090;6.350;2023-05-23T05:21:00;16.38;;;7.20;;
64609;SDS011;51019;46.090;6.350;2023-05-23T05:23:31;17.08;;;6.07;;
64609;SDS011;51019;46.090;6.350;2023-05-23T05:25:59;15.27;;;5.93;;
64609;SDS011;51019;46.090;6.350;2023-05-23T05:28:28;17.98;;;6.25;;
64609;SDS011;51019;46.090;6.350;2023-05-23T05:30:56;14.55;;;6.30;;
64609;SDS011;51019;46.090;6.350;2023-05-23T05:33:29;16.33;;;6.35;;
64609;SDS011;51019;46.090;6.350;2023-05-23T05:36:00;15.07;;;6.30;;
64609;SDS011;51019;46.090;6.350;2023-05-23T05:38:32;15.75;;;6.72;;
64609;SDS011;51019;46.090;6.350;2023-05-23T05:41:02;16.92;;;6.70;;
64609;SDS011;51019;46.090;6.350;2023-05-23T05:43:30;15.15;;;5.70;;
64609;SDS011;51019;46.090;6.350;2023-05-23T05:46:00;16.83;;;6.28;;
64609;SDS011;51019;46.090;6.350;2023-05-23T05:48:29;16.08;;;5.90;;
64609;SDS011;51019;46.090;6.350;2023-05-23T05:50:58;15.10;;;5.93;;
64609;SDS011;51019;46.090;6.350;2023-05-23T05:53:32;18.40;;;5.73;;
64609;SDS011;51019;46.090;6.350;2023-05-23T05:55:59;16.33;;;5.90;;
64609;SDS011;51019;46.090;6.350;2023-05-23T05:58:29;16.35;;;6.72;;
64609;SDS011;51019;46.090;6.350;2023-05-23T06:00:58;15.70;;;6.40;;
64609;SDS011;51019;46.090;6.350;2023-05-23T06:03:28;15.68;;;6.10;;
64609;SDS011;51019;46.090;6.350;2023-05-23T06:05:56;17.10;;;5.70;;
64609;SDS011;51019;46.090;6.350;2023-05-23T06:08:24;14.50;;;6.35;;
64609;SDS011;51019;46.090;6.350;2023-05-23T06:10:55;15.02;;;6.63;;
64609;SDS011;51019;46.090;6.350;2023-05-23T06:13:22;15.80;;;6.40;;
64609;SDS011;51019;46.090;6.350;2023-05-23T06:15:51;15.05;;;6.10;;
64609;SDS011;51019;46.090;6.350;2023-05-23T06:18:19;15.63;;;6.47;;
64609;SDS011;51019;46.090;6.350;2023-05-23T06:20:47;15.43;;;5.97;;
64609;SDS011;51019;46.090;6.350;2023-05-23T06:23:16;15.82;;;5.97;;
64609;SDS011;51019;46.090;6.350;2023-05-23T06:25:44;15.90;;;6.57;;
64609;SDS011;51019;46.090;6.350;2023-05-23T06:28:13;17.35;;;6.45;;
64609;SDS011;51019;46.090;6.350;2023-05-23T06:30:41;21.42;;;6.82;;
64609;SDS011;51019;46.090;6.350;2023-05-23T06:33:08;17.52;;;6.28;;
64609;SDS011;51019;46.090;6.350;2023-05-23T06:35:38;16.17;;;6.70;;
64609;SDS011;51019;46.090;6.350;2023-05-23T06:38:06;16.33;;;6.90;;
64609;SDS011;51019;46.090;6.350;2023-05-23T06:40:34;15.27;;;6.97;;
64609;SDS011;51019;46.090;6.350;2023-05-23T06:43:03;15.27;;;6.85;;
64609;SDS011;51019;46.090;6.350;2023-05-23T06:45:33;16.88;;;6.60;;
64609;SDS011;51019;46.090;6.350;2023-05-23T06:48:02;18.77;;;6.45;;
64609;SDS011;51019;46.090;6.350;2023-05-23T06:50:30;15.48;;;6.20;;
64609;SDS011;51019;46.090;6.350;2023-05-23T06:52:58;13.63;;;5.60;;
64609;SDS011;51019;46.090;6.350;2023-05-23T06:55:25;15.70;;;6.25;;
64609;SDS011;51019;46.090;6.350;2023-05-23T06:57:57;15.60;;;5.45;;
64609;SDS011;51019;46.090;6.350;2023-05-23T07:00:28;14.30;;;5.90;;
64609;SDS011;51019;46.090;6.350;2023-05-23T07:02:59;19.58;;;6.10;;
64609;SDS011;51019;46.090;6.350;2023-05-23T07:05:28;16.17;;;6.18;;
64609;SDS011;51019;46.090;6.350;2023-05-23T07:07:57;16.75;;;5.70;;
64609;SDS011;51019;46.090;6.350;2023-05-23T07:10:25;17.27;;;6.22;;
64609;SDS011;51019;46.090;6.350;2023-05-23T07:12:54;15.38;;;5.40;;
64609;SDS011;51019;46.090;6.350;2023-05-23T07:15:23;16.05;;;6.05;;
64609;SDS011;51019;46.090;6.350;2023-05-23T07:17:51;18.98;;;6.47;;
64609;SDS011;51019;46.090;6.350;2023-05-23T07:20:21;32.30;;;6.60;;
64609;SDS011;51019;46.090;6.350;2023-05-23T07:22:49;18.13;;;6.38;;
64609;SDS011;51019;46.090;6.350;2023-05-23T07:25:17;28.70;;;6.15;;
64609;SDS011;51019;46.090;6.350;2023-05-23T07:27:47;17.73;;;5.15;;
64609;SDS011;51019;46.090;6.350;2023-05-23T07:30:16;19.35;;;5.82;;
64609;SDS011;51019;46.090;6.350;2023-05-23T07:32:45;16.00;;;5.63;;
64609;SDS011;51019;46.090;6.350;2023-05-23T07:35:14;21.67;;;6.13;;
64609;SDS011;51019;46.090;6.350;2023-05-23T07:37:43;14.73;;;5.47;;
64609;SDS011;51019;46.090;6.350;2023-05-23T07:40:12;14.23;;;5.28;;
64609;SDS011;51019;46.090;6.350;2023-05-23T07:42:40;15.32;;;4.93;;
64609;SDS011;51019;46.090;6.350;2023-05-23T07:45:08;15.25;;;5.80;;
64609;SDS011;51019;46.090;6.350;2023-05-23T07:47:36;14.43;;;5.28;;
64609;SDS011;51019;46.090;6.350;2023-05-23T07:50:05;14.07;;;5.20;;
64609;SDS011;51019;46.090;6.350;2023-05-23T07:52:34;12.70;;;5.43;;
64609;SDS011;51019;46.090;6.350;2023-05-23T07:55:05;12.90;;;5.18;;
64609;SDS011;51019;46.090;6.350;2023-05-23T07:57:35;12.63;;;5.40;;
64609;SDS011;51019;46.090;6.350;2023-05-23T08:00:03;15.43;;;5.47;;
64609;SDS011;51019;46.090;6.350;2023-05-23T08:02:32;14.63;;;5.90;;
64609;SDS011;51019;46.090;6.350;2023-05-23T08:05:00;14.00;;;6.20;;
64609;SDS011;51019;46.090;6.350;2023-05-23T08:07:28;15.60;;;6.07;;
64609;SDS011;51019;46.090;6.350;2023-05-23T08:09:56;13.15;;;5.95;;
64609;SDS011;51019;46.090;6.350;2023-05-23T08:12:26;17.27;;;6.13;;
64609;SDS011;51019;46.090;6.350;2023-05-23T08:14:53;16.15;;;5.78;;
64609;SDS011;51019;46.090;6.350;2023-05-23T08:17:21;17.08;;;5.93;;
64609;SDS011;51019;46.090;6.350;2023-05-23T08:19:49;14.45;;;5.88;;
64609;SDS011;51019;46.090;6.350;2023-05-23T08:22:18;14.88;;;5.50;;
64609;SDS011;51019;46.090;6.350;2023-05-23T08:24:47;15.38;;;6.72;;
64609;SDS011;51019;46.090;6.350;2023-05-23T08:27:15;12.70;;;5.80;;
64609;SDS011;51019;46.090;6.350;2023-05-23T08:29:46;13.73;;;6.45;;
64609;SDS011;51019;46.090;6.350;2023-05-23T08:32:14;14.48;;;6.38;;
64609;SDS011;51019;46.090;6.350;2023-05-23T08:34:42;13.52;;;6.10;;
64609;SDS011;51019;46.090;6.350;2023-05-23T08:37:10;14.25;;;6.57;;
64609;SDS011;51019;46.090;6.350;2023-05-23T08:39:38;15.15;;;6.55;;
64609;SDS011;51019;46.090;6.350;2023-05-23T08:42:05;14.73;;;7.07;;
64609;SDS011;51019;46.090;6.350;2023-05-23T08:44:34;15.38;;;6.57;;
64609;SDS011;51019;46.090;6.350;2023-05-23T08:47:06;18.55;;;7.25;;
64609;SDS011;51019;46.090;6.350;2023-05-23T08:49:35;18.38;;;7.38;;
64609;SDS011;51019;46.090;6.350;2023-05-23T08:52:04;15.10;;;6.45;;
64609;SDS011;51019;46.090;6.350;2023-05-23T08:57:05;17.27;;;7.55;;
64609;SDS011;51019;46.090;6.350;2023-05-23T08:59:34;15.40;;;7.60;;
64609;SDS011;51019;46.090;6.350;2023-05-23T09:02:10;16.67;;;7.22;;
64609;SDS011;51019;46.090;6.350;2023-05-23T09:04:38;17.00;;;7.28;;
64609;SDS011;51019;46.090;6.350;2023-05-23T09:07:09;14.98;;;6.95;;
64609;SDS011;51019;46.090;6.350;2023-05-23T09:09:42;16.70;;;7.82;;
64609;SDS011;51019;46.090;6.350;2023-05-23T09:12:13;16.52;;;8.00;;
64609;SDS011;51019;46.090;6.350;2023-05-23T09:14:41;17.08;;;7.72;;
64609;SDS011;51019;46.090;6.350;2023-05-23T09:17:15;14.75;;;7.50;;
64609;SDS011;51019;46.090;6.350;2023-05-23T09:19:45;16.08;;;7.70;;
64609;SDS011;51019;46.090;6.350;2023-05-23T09:22:13;17.25;;;7.60;;
64609;SDS011;51019;46.090;6.350;2023-05-23T09:24:41;15.25;;;7.40;;
64609;SDS011;51019;46.090;6.350;2023-05-23T09:27:10;18.50;;;8.02;;
64609;SDS011;51019;46.090;6.350;2023-05-23T09:29:38;19.00;;;8.50;;
64609;SDS011;51019;46.090;6.350;2023-05-23T09:32:09;16.23;;;7.68;;
64609;SDS011;51019;46.090;6.350;2023-05-23T09:34:41;17.27;;;7.97;;
64609;SDS011;51019;46.090;6.350;2023-05-23T09:37:10;17.67;;;8.23;;
64609;SDS011;51019;46.090;6.350;2023-05-23T09:39:44;15.88;;;8.65;;
64609;SDS011;51019;46.090;6.350;2023-05-23T09:42:17;16.33;;;8.45;;
64609;SDS011;51019;46.090;6.350;2023-05-23T09:44:46;17.60;;;7.78;;
64609;SDS011;51019;46.090;6.350;2023-05-23T09:47:14;14.82;;;7.25;;
64609;SDS011;51019;46.090;6.350;2023-05-23T09:49:45;14.40;;;7.25;;
64609;SDS011;51019;46.090;6.350;2023-05-23T09:52:15;18.42;;;8.35;;
64609;SDS011;51019;46.090;6.350;2023-05-23T09:54:44;16.73;;;8.40;;
64609;SDS011;51019;46.090;6.350;2023-05-23T09:57:13;15.02;;;7.47;;
64609;SDS011;51019;46.090;6.350;2023-05-23T09:59:44;16.70;;;7.07;;
64609;SDS011;51019;46.090;6.350;2023-05-23T10:02:25;15.43;;;7.80;;
64609;SDS011;51019;46.090;6.350;2023-05-23T10:07:53;15.68;;;6.90;;
64609;SDS011;51019;46.090;6.350;2023-05-23T10:10:22;14.02;;;6.53;;
64609;SDS011;51019;46.090;6.350;2023-05-23T10:12:52;15.75;;;6.75;;
64609;SDS011;51019;46.090;6.350;2023-05-23T10:15:22;13.38;;;6.15;;
64609;SDS011;51019;46.090;6.350;2023-05-23T10:18:07;18.90;;;6.40;;
64609;SDS011;51019;46.090;6.350;2023-05-23T10:20:59;16.58;;;7.70;;
64609;SDS011;51019;46.090;6.350;2023-05-23T10:23:34;15.05;;;6.75;;
64609;SDS011;51019;46.090;6.350;2023-05-23T10:26:03;14.45;;;6.70;;
64609;SDS011;51019;46.090;6.350;2023-05-23T10:28:31;15.98;;;6.57;;
64609;SDS011;51019;46.090;6.350;2023-05-23T10:31:01;13.02;;;6.53;;
64609;SDS011;51019;46.090;6.350;2023-05-23T10:33:30;16.35;;;6.55;;
64609;SDS011;51019;46.090;6.350;2023-05-23T10:36:12;14.75;;;6.70;;
64609;SDS011;51019;46.090;6.350;2023-05-23T10:38:48;13.70;;;6.70;;
64609;SDS011;51019;46.090;6.350;2023-05-23T10:41:20;14.57;;;7.13;;
64609;SDS011;51019;46.090;6.350;2023-05-23T10:43:53;13.68;;;6.53;;
64609;SDS011;51019;46.090;6.350;2023-05-23T10:46:42;13.48;;;6.53;;
64609;SDS011;51019;46.090;6.350;2023-05-23T10:49:18;14.48;;;6.82;;
64609;SDS011;51019;46.090;6.350;2023-05-23T10:51:49;13.55;;;6.53;;
64609;SDS011;51019;46.090;6.350;2023-05-23T10:56:47;15.27;;;6.97;;
64609;SDS011;51019;46.090;6.350;2023-05-23T10:59:29;14.15;;;6.97;;
64609;SDS011;51019;46.090;6.350;2023-05-23T11:01:58;14.50;;;6.97;;
64609;SDS011;51019;46.090;6.350;2023-05-23T11:04:33;15.15;;;7.13;;
64609;SDS011;51019;46.090;6.350;2023-05-23T11:07:03;14.95;;;7.10;;
64609;SDS011;51019;46.090;6.350;2023-05-23T11:09:30;14.93;;;7.30;;
64609;SDS011;51019;46.090;6.350;2023-05-23T11:11:59;15.60;;;6.65;;
64609;SDS011;51019;46.090;6.350;2023-05-23T11:14:51;15.48;;;7.93;;
64609;SDS011;51019;46.090;6.350;2023-05-23T11:17:29;15.27;;;7.40;;
64609;SDS011;51019;46.090;6.350;2023-05-23T11:19:58;17.08;;;7.47;;
64609;SDS011;51019;46.090;6.350;2023-05-23T11:22:33;16.42;;;7.85;;
64609;SDS011;51019;46.090;6.350;2023-05-23T11:25:05;15.52;;;8.07;;
64609;SDS011;51019;46.090;6.350;2023-05-23T11:27:35;14.55;;;7.00;;
64609;SDS011;51019;46.090;6.350;2023-05-23T11:30:06;16.02;;;7.63;;
64609;SDS011;51019;46.090;6.350;2023-05-23T11:32:35;16.83;;;8.40;;
64609;SDS011;51019;46.090;6.350;2023-05-23T11:35:03;15.52;;;7.90;;
64609;SDS011;51019;46.090;6.350;2023-05-23T11:37:36;17.02;;;7.55;;
64609;SDS011;51019;46.090;6.350;2023-05-23T11:40:23;14.30;;;7.43;;
64609;SDS011;51019;46.090;6.350;2023-05-23T11:42:52;14.48;;;7.55;;
64609;SDS011;51019;46.090;6.350;2023-05-23T11:45:20;14.80;;;7.40;;
64609;SDS011;51019;46.090;6.350;2023-05-23T11:47:50;15.93;;;7.43;;
64609;SDS011;51019;46.090;6.350;2023-05-23T11:50:18;14.88;;;7.80;;
64609;SDS011;51019;46.090;6.350;2023-05-23T11:52:48;16.00;;;7.63;;
64609;SDS011;51019;46.090;6.350;2023-05-23T11:55:17;15.73;;;7.60;;
64609;SDS011;51019;46.090;6.350;2023-05-23T11:57:45;15.57;;;7.65;;
64609;SDS011;51019;46.090;6.350;2023-05-23T12:00:14;17.60;;;8.07;;
64609;SDS011;51019;46.090;6.350;2023-05-23T12:02:43;17.63;;;8.55;;
64609;SDS011;51019;46.090;6.350;2023-05-23T12:05:13;17.05;;;8.27;;
64609;SDS011;51019;46.090;6.350;2023-05-23T12:07:41;15.60;;;7.93;;
64609;SDS011;51019;46.090;6.350;2023-05-23T12:10:10;15.90;;;8.30;;
64609;SDS011;51019;46.090;6.350;2023-05-23T12:12:39;16.77;;;8.38;;
64609;SDS011;51019;46.090;6.350;2023-05-23T12:15:08;16.00;;;7.45;;
64609;SDS011;51019;46.090;6.350;2023-05-23T12:17:36;17.33;;;8.30;;
64609;SDS011;51019;46.090;6.350;2023-05-23T12:20:04;16.65;;;7.97;;
64609;SDS011;51019;46.090;6.350;2023-05-23T12:22:42;15.18;;;7.97;;
64609;SDS011;51019;46.090;6.350;2023-05-23T12:25:12;15.90;;;7.43;;
64609;SDS011;51019;46.090;6.350;2023-05-23T12:27:40;15.13;;;7.63;;
64609;SDS011;51019;46.090;6.350;2023-05-23T12:30:08;17.65;;;7.50;;
64609;SDS011;51019;46.090;6.350;2023-05-23T12:32:38;16.98;;;7.45;;
64609;SDS011;51019;46.090;6.350;2023-05-23T12:35:07;18.02;;;7.70;;
64609;SDS011;51019;46.090;6.350;2023-05-23T12:37:37;15.60;;;7.18;;
64609;SDS011;51019;46.090;6.350;2023-05-23T12:40:13;15.75;;;7.95;;
64609;SDS011;51019;46.090;6.350;2023-05-23T12:42:45;17.30;;;7.53;;
64609;SDS011;51019;46.090;6.350;2023-05-23T12:45:17;16.13;;;8.10;;
64609;SDS011;51019;46.090;6.350;2023-05-23T12:47:51;14.68;;;7.50;;
64609;SDS011;51019;46.090;6.350;2023-05-23T12:50:18;16.58;;;7.97;;
64609;SDS011;51019;46.090;6.350;2023-05-23T12:52:48;15.75;;;7.05;;
64609;SDS011;51019;46.090;6.350;2023-05-23T12:55:18;14.60;;;7.05;;
64609;SDS011;51019;46.090;6.350;2023-05-23T12:57:46;17.17;;;7.80;;
64609;SDS011;51019;46.090;6.350;2023-05-23T13:00:14;15.80;;;7.55;;
64609;SDS011;51019;46.090;6.350;2023-05-23T13:02:42;15.25;;;7.28;;
64609;SDS011;51019;46.090;6.350;2023-05-23T13:05:10;15.25;;;6.97;;
64609;SDS011;51019;46.090;6.350;2023-05-23T13:07:37;14.55;;;7.30;;
64609;SDS011;51019;46.090;6.350;2023-05-23T13:10:06;14.10;;;6.60;;
64609;SDS011;51019;46.090;6.350;2023-05-23T13:12:36;17.50;;;7.18;;
64609;SDS011;51019;46.090;6.350;2023-05-23T13:15:03;13.98;;;6.45;;
64609;SDS011;51019;46.090;6.350;2023-05-23T13:17:31;13.38;;;6.40;;
64609;SDS011;51019;46.090;6.350;2023-05-23T13:19:59;14.98;;;6.32;;
64609;SDS011;51019;46.090;6.350;2023-05-23T13:22:29;15.13;;;6.15;;
64609;SDS011;51019;46.090;6.350;2023-05-23T13:27:29;15.57;;;6.63;;
64609;SDS011;51019;46.090;6.350;2023-05-23T13:29:58;14.23;;;6.30;;
64609;SDS011;51019;46.090;6.350;2023-05-23T13:32:26;16.08;;;6.97;;
64609;SDS011;51019;46.090;6.350;2023-05-23T13:34:53;14.10;;;6.28;;
64609;SDS011;51019;46.090;6.350;2023-05-23T13:37:21;15.50;;;6.65;;
64609;SDS011;51019;46.090;6.350;2023-05-23T13:39:51;14.60;;;6.20;;
64609;SDS011;51019;46.090;6.350;2023-05-23T13:42:19;14.70;;;6.95;;
64609;SDS011;51019;46.090;6.350;2023-05-23T13:44:46;13.90;;;5.80;;
64609;SDS011;51019;46.090;6.350;2023-05-23T13:47:16;14.75;;;6.35;;
64609;SDS011;51019;46.090;6.350;2023-05-23T13:49:45;14.98;;;6.13;;
64609;SDS011;51019;46.090;6.350;2023-05-23T13:52:17;15.07;;;6.75;;
64609;SDS011;51019;46.090;6.350;2023-05-23T13:54:45;14.50;;;6.77;;
64609;SDS011;51019;46.090;6.350;2023-05-23T13:57:13;15.18;;;6.65;;
64609;SDS011;51019;46.090;6.350;2023-05-23T13:59:40;14.32;;;6.85;;
64609;SDS011;51019;46.090;6.350;2023-05-23T14:02:08;16.33;;;7.15;;
64609;SDS011;51019;46.090;6.350;2023-05-23T14:04:38;16.75;;;6.55;;
64609;SDS011;51019;46.090;6.350;2023-05-23T14:07:05;15.90;;;6.88;;
64609;SDS011;51019;46.090;6.350;2023-05-23T14:09:33;15.32;;;7.20;;
64609;SDS011;51019;46.090;6.350;2023-05-23T14:12:00;14.98;;;7.47;;
64609;SDS011;51019;46.090;6.350;2023-05-23T14:14:29;14.85;;;6.43;;
64609;SDS011;51019;46.090;6.350;2023-05-23T14:16:56;16.30;;;6.75;;
64609;SDS011;51019;46.090;6.350;2023-05-23T14:19:24;16.08;;;7.10;;
64609;SDS011;51019;46.090;6.350;2023-05-23T14:21:54;13.98;;;6.60;;
64609;SDS011;51019;46.090;6.350;2023-05-23T14:24:22;13.77;;;6.05;;
64609;SDS011;51019;46.090;6.350;2023-05-23T14:26:49;14.13;;;6.82;;
64609;SDS011;51019;46.090;6.350;2023-05-23T14:29:16;14.02;;;6.45;;
64609;SDS011;51019;46.090;6.350;2023-05-23T14:31:44;14.77;;;6.53;;
64609;SDS011;51019;46.090;6.350;2023-05-23T14:34:11;14.70;;;7.13;;
64609;SDS011;51019;46.090;6.350;2023-05-23T14:36:39;15.32;;;6.78;;
64609;SDS011;51019;46.090;6.350;2023-05-23T14:39:08;12.30;;;5.30;;
64609;SDS011;51019;46.090;6.350;2023-05-23T14:41:35;15.38;;;5.82;;
64609;SDS011;51019;46.090;6.350;2023-05-23T14:44:11;29.00;;;7.30;;
64609;SDS011;51019;46.090;6.350;2023-05-23T14:46:49;16.55;;;6.30;;
64609;SDS011;51019;46.090;6.350;2023-05-23T14:49:16;15.27;;;6.47;;
64609;SDS011;51019;46.090;6.350;2023-05-23T14:51:44;14.35;;;6.50;;
64609;SDS011;51019;46.090;6.350;2023-05-23T14:54:13;13.77;;;6.10;;
64609;SDS011;51019;46.090;6.350;2023-05-23T14:56:41;13.98;;;6.72;;